Time,TemperatureF,DewpointF,PressureIn,WindDirection,WindDirectionDegrees,WindSpeedMPH,WindSpeedGustMPH,Humidity,HourlyPrecipIn,Conditions,Clouds,dailyrainin,SoftwareType,DateUTC
2013-04-06 00:00:00,50.9,50.0,30.12,WNW,301,9.0,14.0,97,0.00,,,0.02,,2013-04-06 07:00:00,
2013-04-06 00:10:00,50.7,50.0,30.12,NW,314,4.0,8.0,98,0.00,,,0.02,,2013-04-06 07:10:00,
2013-04-06 00:20:00,50.4,50.0,30.12,NW,314,4.0,5.0,98,0.00,,,0.00,,2013-04-06 07:20:00,
2013-04-06 00:30:00,50.2,50.0,30.12,NW,314,3.0,3.0,98,0.00,,,0.00,,2013-04-06 07:30:00,
2013-04-06 00:40:00,50.2,50.0,30.12,NW,314,3.0,4.0,98,0.00,,,0.00,,2013-04-06 07:40:00,
2013-04-06 00:50:00,50.6,50.0,30.12,NNW,346,3.0,4.0,98,0.00,,,0.00,,2013-04-06 07:50:00,
2013-04-06 01:00:00,50.8,50.0,30.12,NNW,346,3.0,3.0,98,0.00,,,0.00,,2013-04-06 08:00:00,
2013-04-06 01:10:00,51.4,51.0,30.12,NNW,346,2.0,3.0,99,0.00,,,0.00,,2013-04-06 08:10:00,
2013-04-06 01:20:00,51.2,51.0,30.12,NNW,346,3.0,4.0,98,0.00,,,0.00,,2013-04-06 08:20:00,
2013-04-06 01:30:00,50.5,50.0,30.12,West,269,7.0,10.0,97,0.00,,,0.00,,2013-04-06 08:30:00,
2013-04-06 01:40:00,50.3,50.0,30.12,West,277,8.0,11.0,98,0.00,,,0.00,,2013-04-06 08:40:00,
2013-04-06 01:50:00,50.2,50.0,30.12,WNW,285,3.0,9.0,98,0.00,,,0.00,,2013-04-06 08:50:00,
2013-04-06 02:00:00,50.3,50.0,30.11,WNW,285,0.0,5.0,98,0.00,,,0.00,,2013-04-06 09:00:00,
2013-04-06 02:10:00,50.1,50.0,30.11,WNW,285,4.0,5.0,98,0.00,,,0.00,,2013-04-06 09:10:00,
2013-04-06 02:20:00,50.1,50.0,30.11,WNW,285,3.0,4.0,98,0.00,,,0.00,,2013-04-06 09:20:00,
2013-04-06 02:30:00,50.2,50.0,30.10,WNW,285,2.0,4.0,98,0.00,,,0.00,,2013-04-06 09:30:00,
2013-04-06 02:40:00,50.4,50.0,30.10,WNW,285,0.0,1.0,98,0.00,,,0.00,,2013-04-06 09:40:00,
2013-04-06 02:50:00,51.0,50.0,30.10,West,279,6.0,7.0,98,0.00,,,0.00,,2013-04-06 09:50:00,
2013-04-06 03:00:00,51.7,50.0,30.11,West,263,12.0,13.0,95,0.00,,,0.00,,2013-04-06 10:00:00,
2013-04-06 03:10:00,50.9,50.0,30.10,West,281,15.0,18.0,95,0.00,,,0.00,,2013-04-06 10:10:00,
2013-04-06 03:20:00,50.7,49.0,30.10,West,277,18.0,20.0,95,0.00,,,0.00,,2013-04-06 10:20:00,
2013-04-06 03:30:00,50.6,49.0,30.10,WNW,285,13.0,22.0,95,0.00,,,0.00,,2013-04-06 10:30:00,
2013-04-06 03:40:00,50.4,49.0,30.10,WNW,285,14.0,20.0,96,0.00,,,0.00,,2013-04-06 10:40:00,
2013-04-06 03:50:00,50.1,49.0,30.10,WNW,293,12.0,19.0,96,0.00,,,0.00,,2013-04-06 10:50:00,
2013-04-06 04:00:00,49.9,49.0,30.10,NW,320,6.0,13.0,96,0.00,,,0.00,,2013-04-06 11:00:00,
2013-04-06 04:10:00,50.3,49.0,30.09,NW,318,7.0,8.0,96,0.00,,,0.00,,2013-04-06 11:10:00,
2013-04-06 04:20:00,50.4,49.0,30.09,NW,319,1.0,7.0,94,0.00,,,0.00,,2013-04-06 11:20:00,
2013-04-06 04:30:00,50.2,49.0,30.09,NW,310,2.0,5.0,94,0.00,,,0.00,,2013-04-06 11:30:00,
2013-04-06 04:40:00,49.9,48.0,30.09,NW,315,2.0,3.0,93,0.00,,,0.00,,2013-04-06 11:40:00,
2013-04-06 04:50:00,49.8,48.0,30.09,NW,313,0.0,1.0,93,0.00,,,0.00,,2013-04-06 11:50:00,
2013-04-06 05:00:00,49.8,48.0,30.09,NW,313,0.0,3.0,94,0.00,,,0.00,,2013-04-06 12:00:00,
2013-04-06 05:10:00,50.0,48.0,30.10,NW,316,2.0,3.0,94,0.00,,,0.00,,2013-04-06 12:10:00,
2013-04-06 05:20:00,50.4,48.0,30.10,NW,316,1.0,2.0,93,0.00,,,0.00,,2013-04-06 12:20:00,
2013-04-06 05:30:00,50.8,49.0,30.10,NW,316,0.0,0.0,92,0.00,,,0.00,,2013-04-06 12:30:00,
2013-04-06 05:40:00,51.5,48.0,30.10,West,281,1.0,5.0,89,0.00,,,0.00,,2013-04-06 12:40:00,
2013-04-06 05:50:00,51.7,48.0,30.09,WNW,295,1.0,6.0,87,0.00,,,0.00,,2013-04-06 12:50:00,
2013-04-06 06:00:00,50.7,48.0,30.10,West,279,8.0,10.0,90,0.00,,,0.00,,2013-04-06 13:00:00,
2013-04-06 06:10:00,50.0,48.0,30.10,WNW,283,13.0,15.0,93,0.00,,,0.00,,2013-04-06 13:10:00,
2013-04-06 06:20:00,49.9,48.0,30.11,WNW,295,16.0,18.0,94,0.00,,,0.00,,2013-04-06 13:20:00,
2013-04-06 06:30:00,50.1,49.0,30.11,WNW,291,15.0,19.0,95,0.00,,,0.00,,2013-04-06 13:30:00,
2013-04-06 06:40:00,50.1,49.0,30.11,WNW,298,10.0,16.0,95,0.00,,,0.00,,2013-04-06 13:40:00,
2013-04-06 06:50:00,50.0,49.0,30.11,NW,326,5.0,9.0,95,0.00,,,0.00,,2013-04-06 13:50:00,
2013-04-06 07:01:00,49.5,48.0,30.12,NW,307,5.0,6.0,95,0.00,,,0.00,,2013-04-06 14:01:00,
2013-04-06 07:10:00,49.6,48.0,30.12,NW,313,4.0,8.0,95,0.00,,,0.00,,2013-04-06 14:10:00,
2013-04-06 07:20:00,50.3,49.0,30.12,WNW,298,8.0,9.0,95,0.00,,,0.00,,2013-04-06 14:20:00,
2013-04-06 07:30:00,50.6,49.0,30.12,NW,305,3.0,9.0,95,0.00,,,0.00,,2013-04-06 14:30:00,
2013-04-06 07:40:00,51.2,50.0,30.13,NW,305,2.0,6.0,95,0.00,,,0.00,,2013-04-06 14:40:00,
2013-04-06 07:50:00,51.9,50.0,30.12,NW,321,3.0,4.0,94,0.00,,,0.00,,2013-04-06 14:50:00,
2013-04-06 08:00:00,51.2,50.0,30.13,NNW,344,0.0,4.0,94,0.00,,,0.00,,2013-04-06 15:00:00,
2013-04-06 08:10:00,51.4,50.0,30.13,NNW,344,0.0,3.0,94,0.00,,,0.00,,2013-04-06 15:10:00,
2013-04-06 08:20:00,52.5,51.0,30.14,NNW,344,3.0,3.0,94,0.00,,,0.00,,2013-04-06 15:20:00,
2013-04-06 08:30:00,52.5,50.0,30.14,NNW,337,3.0,5.0,91,0.00,,,0.00,,2013-04-06 15:30:00,
2013-04-06 08:40:00,51.6,50.0,30.14,West,267,4.0,7.0,93,0.00,,,0.00,,2013-04-06 15:40:00,
2013-04-06 08:50:00,52.3,50.0,30.14,West,271,2.0,6.0,93,0.00,,,0.00,,2013-04-06 15:50:00,
2013-04-06 09:00:00,53.9,52.0,30.14,West,274,2.0,3.0,92,0.00,,,0.00,,2013-04-06 16:00:00,
2013-04-06 09:10:00,55.3,52.0,30.14,West,274,0.0,1.0,89,0.00,,,0.00,,2013-04-06 16:10:00,
2013-04-06 09:20:00,56.6,52.0,30.14,West,274,1.0,2.0,86,0.00,,,0.00,,2013-04-06 16:20:00,
2013-04-06 09:30:00,57.4,52.0,30.15,West,274,0.0,3.0,82,0.00,,,0.00,,2013-04-06 16:30:00,
2013-04-06 09:40:00,57.5,52.0,30.14,West,274,0.0,2.0,81,0.00,,,0.00,,2013-04-06 16:40:00,
2013-04-06 09:50:00,57.8,53.0,30.14,West,274,1.0,4.0,83,0.00,,,0.00,,2013-04-06 16:50:00,
2013-04-06 10:00:00,57.6,53.0,30.14,West,274,0.0,4.0,84,0.00,,,0.00,,2013-04-06 17:00:00,
2013-04-06 10:10:00,56.2,52.0,30.15,West,269,11.0,11.0,85,0.00,,,0.00,,2013-04-06 17:10:00,
2013-04-06 10:20:00,55.0,52.0,30.15,West,271,14.0,17.0,90,0.00,,,0.00,,2013-04-06 17:20:00,
2013-04-06 10:30:00,55.3,52.0,30.15,West,270,13.0,15.0,90,0.00,,,0.00,,2013-04-06 17:30:00,
2013-04-06 10:40:00,55.1,52.0,30.16,West,275,14.0,16.0,90,0.00,,,0.00,,2013-04-06 17:40:00,
2013-04-06 10:50:00,55.2,52.0,30.16,West,270,14.0,16.0,90,0.00,,,0.00,,2013-04-06 17:50:00,
2013-04-06 11:00:00,55.5,52.0,30.15,West,269,12.0,14.0,88,0.00,,,0.00,,2013-04-06 18:00:00,
2013-04-06 11:10:00,55.2,52.0,30.15,West,272,12.0,16.0,90,0.00,,,0.00,,2013-04-06 18:10:00,
2013-04-06 11:20:00,55.3,52.0,30.15,West,275,13.0,17.0,90,0.00,,,0.00,,2013-04-06 18:20:00,
2013-04-06 11:30:00,56.4,53.0,30.14,West,270,15.0,15.0,88,0.00,,,0.00,,2013-04-06 18:30:00,
2013-04-06 11:40:00,57.1,53.0,30.14,West,272,11.0,16.0,86,0.00,,,0.00,,2013-04-06 18:40:00,
2013-04-06 11:50:00,58.0,53.0,30.14,West,271,12.0,13.0,84,0.00,,,0.00,,2013-04-06 18:50:00,
2013-04-06 12:00:00,59.3,52.0,30.13,West,275,9.0,13.0,77,0.00,,,0.00,,2013-04-06 19:00:00,
2013-04-06 12:10:00,61.1,53.0,30.13,West,273,10.0,13.0,75,0.00,,,0.00,,2013-04-06 19:10:00,
2013-04-06 12:20:00,61.4,51.0,30.13,West,277,13.0,16.0,69,0.00,,,0.00,,2013-04-06 19:20:00,
2013-04-06 12:30:00,57.8,53.0,30.12,West,273,17.0,21.0,83,0.00,,,0.00,,2013-04-06 19:30:00,
2013-04-06 12:40:00,56.7,53.0,30.12,West,274,18.0,22.0,86,0.00,,,0.00,,2013-04-06 19:40:00,
2013-04-06 12:50:00,56.9,52.0,30.12,West,273,20.0,25.0,85,0.00,,,0.00,,2013-04-06 19:50:00,
2013-04-06 13:00:00,57.5,53.0,30.12,West,278,19.0,27.0,84,0.00,,,0.00,,2013-04-06 20:00:00,
2013-04-06 13:10:00,57.4,53.0,30.12,West,279,22.0,28.0,84,0.00,,,0.00,,2013-04-06 20:10:00,
2013-04-06 13:20:00,56.6,52.0,30.12,West,273,25.0,29.0,86,0.00,,,0.00,,2013-04-06 20:20:00,
2013-04-06 13:30:00,57.6,53.0,30.13,WNW,292,24.0,30.0,85,0.00,,,0.00,,2013-04-06 20:30:00,
2013-04-06 13:40:00,57.3,52.0,30.12,West,281,26.0,32.0,83,0.00,,,0.00,,2013-04-06 20:40:00,
2013-04-06 13:50:00,57.3,52.0,30.12,WSW,258,31.0,31.0,82,0.00,,,0.00,,2013-04-06 20:50:00,
2013-04-06 14:00:00,57.7,53.0,30.11,WNW,286,26.0,31.0,83,0.00,,,0.00,,2013-04-06 21:00:00,
2013-04-06 14:10:00,57.5,52.0,30.11,West,269,29.0,31.0,81,0.00,,,0.00,,2013-04-06 21:10:00,
2013-04-06 14:21:00,57.1,52.0,30.11,West,275,26.0,34.0,84,0.00,,,0.00,,2013-04-06 21:21:00,
2013-04-06 14:30:00,57.2,53.0,30.10,West,279,26.0,33.0,85,0.00,,,0.00,,2013-04-06 21:30:00,
2013-04-06 14:40:00,56.9,52.0,30.10,WNW,282,28.0,35.0,85,0.00,,,0.00,,2013-04-06 21:40:00,
2013-04-06 14:50:00,56.3,52.0,30.10,WNW,286,22.0,37.0,86,0.00,,,0.00,,2013-04-06 21:50:00,
2013-04-06 15:00:00,57.3,53.0,30.10,West,267,20.0,31.0,87,0.00,,,0.00,,2013-04-06 22:00:00,
2013-04-06 15:10:00,56.8,53.0,30.10,WNW,282,24.0,34.0,87,0.00,,,0.00,,2013-04-06 22:10:00,
2013-04-06 15:20:00,56.3,53.0,30.10,West,275,29.0,36.0,89,0.00,,,0.00,,2013-04-06 22:20:00,
2013-04-06 15:30:00,56.3,53.0,30.09,West,279,27.0,35.0,89,0.00,,,0.00,,2013-04-06 22:30:00,
2013-04-06 15:40:00,56.5,54.0,30.09,West,275,26.0,39.0,91,0.00,,,0.00,,2013-04-06 22:40:00,
2013-04-06 15:50:00,55.7,53.0,30.09,West,273,25.0,37.0,91,0.00,,,0.00,,2013-04-06 22:50:00,
2013-04-06 16:00:00,56.7,54.0,30.08,West,262,33.0,37.0,92,0.00,,,0.00,,2013-04-06 23:00:00,
2013-04-06 16:10:00,56.2,54.0,30.08,West,279,26.0,35.0,93,0.00,,,0.00,,2013-04-06 23:10:00,
2013-04-06 16:20:00,56.4,54.0,30.07,West,271,30.0,35.0,92,0.00,,,0.00,,2013-04-06 23:20:00,
2013-04-06 16:30:00,55.7,54.0,30.07,West,273,38.0,38.0,93,0.00,,,0.00,,2013-04-06 23:30:00,
2013-04-06 16:40:00,55.6,54.0,30.07,WNW,286,29.0,37.0,94,0.00,,,0.00,,2013-04-06 23:40:00,
2013-04-06 16:50:00,54.1,53.0,30.06,WNW,282,27.0,37.0,95,0.00,,,0.00,,2013-04-06 23:50:00,
2013-04-06 17:00:00,53.5,53.0,30.06,West,279,33.0,40.0,97,0.00,,,0.00,,2013-04-07 00:00:00,
2013-04-06 17:10:00,53.2,53.0,30.06,West,277,29.0,41.0,98,0.00,,,0.00,,2013-04-07 00:10:00,
2013-04-06 17:20:00,53.0,52.0,30.07,West,273,31.0,39.0,98,0.00,,,0.00,,2013-04-07 00:20:00,
2013-04-06 17:30:00,53.0,52.0,30.07,West,278,28.0,39.0,98,0.00,,,0.00,,2013-04-07 00:30:00,
2013-04-06 17:40:00,53.0,53.0,30.06,West,272,30.0,39.0,99,0.00,,,0.00,,2013-04-07 00:40:00,
2013-04-06 17:50:00,52.9,53.0,30.06,West,277,29.0,35.0,99,0.00,,,0.00,,2013-04-07 00:50:00,
2013-04-06 18:00:00,52.8,53.0,30.06,West,265,29.0,36.0,99,0.00,,,0.00,,2013-04-07 01:00:00,
2013-04-06 18:10:00,52.7,52.0,30.06,West,277,25.0,36.0,99,0.00,,,0.00,,2013-04-07 01:10:00,
2013-04-06 18:20:00,52.5,52.0,30.06,West,268,32.0,35.0,99,0.00,,,0.00,,2013-04-07 01:20:00,
2013-04-06 18:30:00,52.4,52.0,30.06,West,274,29.0,40.0,99,0.00,,,0.00,,2013-04-07 01:30:00,
2013-04-06 18:40:00,52.3,52.0,30.06,WNW,288,32.0,38.0,99,0.00,,,0.00,,2013-04-07 01:40:00,
2013-04-06 18:50:00,52.2,52.0,30.05,West,272,28.0,39.0,99,0.00,,,0.00,,2013-04-07 01:50:00,
2013-04-06 19:00:00,52.1,52.0,30.06,WNW,283,34.0,36.0,99,0.00,,,0.00,,2013-04-07 02:00:00,
2013-04-06 19:10:00,51.8,52.0,30.06,West,281,30.0,35.0,99,0.00,,,0.00,,2013-04-07 02:10:00,
2013-04-06 19:20:00,51.5,51.0,30.05,WNW,295,28.0,36.0,99,0.00,,,0.00,,2013-04-07 02:20:00,
2013-04-06 19:30:00,51.3,51.0,30.05,WNW,287,31.0,36.0,99,0.00,,,0.00,,2013-04-07 02:30:00,
2013-04-06 19:40:00,51.4,51.0,30.06,WNW,292,26.0,34.0,99,0.00,,,0.00,,2013-04-07 02:40:00,
2013-04-06 19:50:00,51.4,51.0,30.06,WNW,289,25.0,36.0,100,0.00,,,0.00,,2013-04-07 02:50:00,
2013-04-06 20:00:00,51.4,51.0,30.06,WNW,296,28.0,35.0,100,0.00,,,0.00,,2013-04-07 03:00:00,
2013-04-06 20:10:00,51.5,52.0,30.06,WNW,294,19.0,28.0,100,0.00,,,0.00,,2013-04-07 03:10:00,
2013-04-06 20:20:00,51.5,52.0,30.06,WNW,295,19.0,25.0,100,0.00,,,0.00,,2013-04-07 03:20:00,
2013-04-06 20:30:00,51.5,52.0,30.06,WNW,292,15.0,22.0,100,0.00,,,0.00,,2013-04-07 03:30:00,
2013-04-06 20:40:00,51.5,52.0,30.06,WNW,297,13.0,20.0,100,0.00,,,0.00,,2013-04-07 03:40:00,
2013-04-06 20:50:00,51.4,51.0,30.07,NW,320,5.0,9.0,100,0.00,,,0.00,,2013-04-07 03:50:00,
2013-04-06 21:00:00,51.4,51.0,30.07,NW,322,5.0,9.0,100,0.00,,,0.00,,2013-04-07 04:00:00,
2013-04-06 21:10:00,51.4,51.0,30.07,WNW,294,6.0,10.0,100,0.00,,,0.00,,2013-04-07 04:10:00,
2013-04-06 21:20:00,51.3,51.0,30.07,NW,308,5.0,10.0,100,0.00,,,0.00,,2013-04-07 04:20:00,
2013-04-06 21:30:00,51.2,51.0,30.07,NW,304,3.0,5.0,100,0.00,,,0.00,,2013-04-07 04:30:00,
2013-04-06 21:40:00,51.1,51.0,30.07,NW,304,0.0,0.0,100,0.00,,,0.00,,2013-04-07 04:40:00,
2013-04-06 21:50:00,51.5,52.0,30.08,NW,304,0.0,0.0,100,0.00,,,0.00,,2013-04-07 04:50:00,
2013-04-06 22:00:00,51.4,51.0,30.08,NW,304,4.0,4.0,100,0.00,,,0.00,,2013-04-07 05:00:00,
2013-04-06 22:10:00,51.4,51.0,30.09,NW,304,0.0,4.0,100,0.00,,,0.00,,2013-04-07 05:10:00,
2013-04-06 22:20:00,51.7,52.0,30.09,NW,304,0.0,2.0,100,0.00,,,0.00,,2013-04-07 05:20:00,
2013-04-06 22:30:00,51.9,52.0,30.09,NW,304,3.0,5.0,100,0.00,,,0.00,,2013-04-07 05:30:00,
2013-04-06 22:40:00,51.2,51.0,30.08,West,268,8.0,8.0,100,0.00,,,0.00,,2013-04-07 05:40:00,
2013-04-06 22:50:00,51.2,51.0,30.09,West,273,4.0,8.0,100,0.00,,,0.00,,2013-04-07 05:50:00,
2013-04-06 23:00:00,51.0,51.0,30.08,WNW,288,0.0,5.0,100,0.00,,,0.00,,2013-04-07 06:00:00,
2013-04-06 23:10:00,51.1,51.0,30.08,WNW,288,0.0,2.0,100,0.00,,,0.00,,2013-04-07 06:10:00,
2013-04-06 23:20:00,51.2,51.0,30.08,WNW,288,0.0,3.0,100,0.00,,,0.00,,2013-04-07 06:20:00,
2013-04-06 23:30:00,51.2,51.0,30.08,WNW,288,0.0,1.0,100,0.00,,,0.00,,2013-04-07 06:30:00,
2013-04-06 23:40:00,51.3,51.0,30.09,WNW,288,1.0,5.0,100,0.00,,,0.00,,2013-04-07 06:40:00,
2013-04-06 23:50:00,51.0,51.0,30.09,WNW,288,0.0,5.0,100,0.00,,,0.00,,2013-04-07 06:50:00,